sensor_id;sensor_type;location;lat;lon;timestamp;P1;durP1;ratioP1;P2;durP2;ratioP2
43990;SDS011;29654;50.784;20.604;2022-09-03T00:04:24;1.83;;;1.40;;
43990;SDS011;29654;50.784;20.604;2022-09-03T00:09:45;4.45;;;1.75;;
43990;SDS011;29654;50.784;20.604;2022-09-03T00:14:56;1.60;;;1.30;;
43990;SDS011;29654;50.784;20.604;2022-09-03T00:20:06;1.63;;;1.25;;
43990;SDS011;29654;50.784;20.604;2022-09-03T00:25:17;1.98;;;1.50;;
43990;SDS011;29654;50.784;20.604;2022-09-03T00:30:26;2.38;;;1.33;;
43990;SDS011;29654;50.784;20.604;2022-09-03T00:35:31;1.65;;;1.30;;
43990;SDS011;29654;50.784;20.604;2022-09-03T00:40:58;1.67;;;1.17;;
43990;SDS011;29654;50.784;20.604;2022-09-03T00:46:11;3.05;;;1.95;;
43990;SDS011;29654;50.784;20.604;2022-09-03T00:51:25;1.55;;;1.27;;
43990;SDS011;29654;50.784;20.604;2022-09-03T00:56:38;1.50;;;1.40;;
43990;SDS011;29654;50.784;20.604;2022-09-03T01:01:52;2.20;;;1.30;;
43990;SDS011;29654;50.784;20.604;2022-09-03T01:07:07;2.28;;;1.20;;
43990;SDS011;29654;50.784;20.604;2022-09-03T01:12:26;1.63;;;1.50;;
43990;SDS011;29654;50.784;20.604;2022-09-03T01:17:50;1.50;;;1.13;;
43990;SDS011;29654;50.784;20.604;2022-09-03T01:23:08;5.00;;;1.30;;
43990;SDS011;29654;50.784;20.604;2022-09-03T01:28:46;2.13;;;1.20;;
43990;SDS011;29654;50.784;20.604;2022-09-03T01:33:57;1.55;;;1.25;;
43990;SDS011;29654;50.784;20.604;2022-09-03T01:39:12;2.05;;;1.30;;
43990;SDS011;29654;50.784;20.604;2022-09-03T01:44:26;1.05;;;0.95;;
43990;SDS011;29654;50.784;20.604;2022-09-03T01:49:40;1.88;;;1.25;;
43990;SDS011;29654;50.784;20.604;2022-09-03T01:54:52;1.45;;;1.25;;
43990;SDS011;29654;50.784;20.604;2022-09-03T02:00:11;1.60;;;1.30;;
43990;SDS011;29654;50.784;20.604;2022-09-03T02:05:18;1.20;;;1.10;;
43990;SDS011;29654;50.784;20.604;2022-09-03T02:10:25;1.38;;;1.10;;
43990;SDS011;29654;50.784;20.604;2022-09-03T02:15:33;2.88;;;1.33;;
43990;SDS011;29654;50.784;20.604;2022-09-03T02:20:38;2.35;;;1.13;;
43990;SDS011;29654;50.784;20.604;2022-09-03T02:25:42;2.78;;;1.27;;
43990;SDS011;29654;50.784;20.604;2022-09-03T02:30:50;2.35;;;1.02;;
43990;SDS011;29654;50.784;20.604;2022-09-03T02:35:53;1.20;;;1.10;;
43990;SDS011;29654;50.784;20.604;2022-09-03T02:40:56;2.33;;;1.08;;
43990;SDS011;29654;50.784;20.604;2022-09-03T02:46:01;2.25;;;1.67;;
43990;SDS011;29654;50.784;20.604;2022-09-03T02:51:07;1.70;;;1.30;;
43990;SDS011;29654;50.784;20.604;2022-09-03T02:56:10;2.35;;;1.50;;
43990;SDS011;29654;50.784;20.604;2022-09-03T03:01:15;1.15;;;1.05;;
43990;SDS011;29654;50.784;20.604;2022-09-03T03:06:18;3.85;;;1.50;;
43990;SDS011;29654;50.784;20.604;2022-09-03T03:11:21;2.42;;;1.50;;
43990;SDS011;29654;50.784;20.604;2022-09-03T03:16:27;2.33;;;1.75;;
43990;SDS011;29654;50.784;20.604;2022-09-03T03:21:29;2.13;;;1.75;;
43990;SDS011;29654;50.784;20.604;2022-09-03T03:26:32;3.33;;;1.70;;
43990;SDS011;29654;50.784;20.604;2022-09-03T03:31:37;1.65;;;1.35;;
43990;SDS011;29654;50.784;20.604;2022-09-03T03:36:40;2.38;;;1.80;;
43990;SDS011;29654;50.784;20.604;2022-09-03T03:41:43;2.45;;;1.90;;
43990;SDS011;29654;50.784;20.604;2022-09-03T03:46:47;1.83;;;1.73;;
43990;SDS011;29654;50.784;20.604;2022-09-03T03:51:50;2.20;;;2.00;;
43990;SDS011;29654;50.784;20.604;2022-09-03T03:56:52;2.85;;;2.13;;
43990;SDS011;29654;50.784;20.604;2022-09-03T04:01:56;2.90;;;2.10;;
43990;SDS011;29654;50.784;20.604;2022-09-03T04:06:59;1.90;;;1.70;;
43990;SDS011;29654;50.784;20.604;2022-09-03T04:12:02;3.03;;;2.15;;
43990;SDS011;29654;50.784;20.604;2022-09-03T04:17:09;2.63;;;2.30;;
43990;SDS011;29654;50.784;20.604;2022-09-03T04:22:12;3.10;;;2.30;;
43990;SDS011;29654;50.784;20.604;2022-09-03T04:27:15;3.90;;;2.30;;
43990;SDS011;29654;50.784;20.604;2022-09-03T04:32:19;2.47;;;2.28;;
43990;SDS011;29654;50.784;20.604;2022-09-03T04:37:39;2.85;;;2.10;;
43990;SDS011;29654;50.784;20.604;2022-09-03T04:42:42;2.60;;;2.00;;
43990;SDS011;29654;50.784;20.604;2022-09-03T04:47:55;2.63;;;2.13;;
43990;SDS011;29654;50.784;20.604;2022-09-03T04:52:59;5.00;;;2.45;;
43990;SDS011;29654;50.784;20.604;2022-09-03T04:58:04;3.25;;;2.03;;
43990;SDS011;29654;50.784;20.604;2022-09-03T05:03:09;3.28;;;2.65;;
43990;SDS011;29654;50.784;20.604;2022-09-03T05:08:12;3.40;;;2.58;;
43990;SDS011;29654;50.784;20.604;2022-09-03T05:13:15;3.08;;;2.17;;
43990;SDS011;29654;50.784;20.604;2022-09-03T05:18:19;3.55;;;2.28;;
43990;SDS011;29654;50.784;20.604;2022-09-03T05:23:22;2.88;;;2.15;;
43990;SDS011;29654;50.784;20.604;2022-09-03T05:28:25;3.15;;;2.40;;
43990;SDS011;29654;50.784;20.604;2022-09-03T05:33:32;6.22;;;2.75;;
43990;SDS011;29654;50.784;20.604;2022-09-03T05:38:35;3.10;;;2.75;;
43990;SDS011;29654;50.784;20.604;2022-09-03T05:43:39;3.10;;;2.40;;
43990;SDS011;29654;50.784;20.604;2022-09-03T05:48:44;3.70;;;2.83;;
43990;SDS011;29654;50.784;20.604;2022-09-03T05:53:47;4.38;;;3.00;;
43990;SDS011;29654;50.784;20.604;2022-09-03T05:58:53;5.93;;;3.20;;
43990;SDS011;29654;50.784;20.604;2022-09-03T06:04:10;4.72;;;2.85;;
43990;SDS011;29654;50.784;20.604;2022-09-03T06:09:15;4.95;;;2.63;;
43990;SDS011;29654;50.784;20.604;2022-09-03T06:14:20;4.57;;;2.85;;
43990;SDS011;29654;50.784;20.604;2022-09-03T06:19:24;3.55;;;2.50;;
43990;SDS011;29654;50.784;20.604;2022-09-03T06:24:27;4.68;;;3.47;;
43990;SDS011;29654;50.784;20.604;2022-09-03T06:29:30;3.70;;;2.65;;
43990;SDS011;29654;50.784;20.604;2022-09-03T06:34:34;3.53;;;2.95;;
43990;SDS011;29654;50.784;20.604;2022-09-03T06:39:37;3.35;;;2.97;;
43990;SDS011;29654;50.784;20.604;2022-09-03T06:44:40;3.83;;;2.80;;
43990;SDS011;29654;50.784;20.604;2022-09-03T06:49:46;3.40;;;2.97;;
43990;SDS011;29654;50.784;20.604;2022-09-03T06:54:48;4.93;;;3.05;;
43990;SDS011;29654;50.784;20.604;2022-09-03T06:59:51;4.88;;;3.55;;
43990;SDS011;29654;50.784;20.604;2022-09-03T07:04:56;4.80;;;3.22;;
43990;SDS011;29654;50.784;20.604;2022-09-03T07:09:59;3.83;;;3.28;;
43990;SDS011;29654;50.784;20.604;2022-09-03T07:15:02;3.83;;;3.42;;
43990;SDS011;29654;50.784;20.604;2022-09-03T07:20:07;4.97;;;2.95;;
43990;SDS011;29654;50.784;20.604;2022-09-03T07:25:11;3.85;;;2.92;;
43990;SDS011;29654;50.784;20.604;2022-09-03T07:30:14;4.78;;;3.28;;
43990;SDS011;29654;50.784;20.604;2022-09-03T07:35:20;5.15;;;3.60;;
43990;SDS011;29654;50.784;20.604;2022-09-03T07:40:25;3.67;;;2.78;;
43990;SDS011;29654;50.784;20.604;2022-09-03T07:45:29;4.72;;;3.85;;
43990;SDS011;29654;50.784;20.604;2022-09-03T07:50:35;6.22;;;5.63;;
43990;SDS011;29654;50.784;20.604;2022-09-03T07:55:39;5.78;;;4.38;;
43990;SDS011;29654;50.784;20.604;2022-09-03T08:00:42;5.75;;;3.70;;
43990;SDS011;29654;50.784;20.604;2022-09-03T08:05:47;4.03;;;3.15;;
43990;SDS011;29654;50.784;20.604;2022-09-03T08:10:49;5.10;;;3.60;;
43990;SDS011;29654;50.784;20.604;2022-09-03T08:15:53;4.70;;;3.17;;
43990;SDS011;29654;50.784;20.604;2022-09-03T08:21:00;4.35;;;3.15;;
43990;SDS011;29654;50.784;20.604;2022-09-03T08:26:03;5.88;;;3.35;;
43990;SDS011;29654;50.784;20.604;2022-09-03T08:31:06;3.47;;;3.03;;
43990;SDS011;29654;50.784;20.604;2022-09-03T08:36:14;6.32;;;3.30;;
43990;SDS011;29654;50.784;20.604;2022-09-03T08:41:19;3.85;;;3.20;;
43990;SDS011;29654;50.784;20.604;2022-09-03T08:46:36;3.28;;;2.92;;
43990;SDS011;29654;50.784;20.604;2022-09-03T08:51:54;4.40;;;3.05;;
43990;SDS011;29654;50.784;20.604;2022-09-03T08:57:01;3.47;;;2.95;;
43990;SDS011;29654;50.784;20.604;2022-09-03T09:02:09;4.15;;;2.67;;
43990;SDS011;29654;50.784;20.604;2022-09-03T09:07:31;3.35;;;2.88;;
43990;SDS011;29654;50.784;20.604;2022-09-03T09:12:46;4.15;;;3.03;;
43990;SDS011;29654;50.784;20.604;2022-09-03T09:18:06;3.00;;;2.70;;
43990;SDS011;29654;50.784;20.604;2022-09-03T09:23:19;4.03;;;2.35;;
43990;SDS011;29654;50.784;20.604;2022-09-03T09:28:31;3.00;;;2.13;;
43990;SDS011;29654;50.784;20.604;2022-09-03T09:33:37;4.40;;;2.40;;
43990;SDS011;29654;50.784;20.604;2022-09-03T09:38:42;2.58;;;2.28;;
43990;SDS011;29654;50.784;20.604;2022-09-03T09:43:46;3.78;;;2.42;;
43990;SDS011;29654;50.784;20.604;2022-09-03T09:48:50;2.58;;;2.38;;
43990;SDS011;29654;50.784;20.604;2022-09-03T09:54:02;3.13;;;2.28;;
43990;SDS011;29654;50.784;20.604;2022-09-03T09:59:14;3.67;;;2.55;;
43990;SDS011;29654;50.784;20.604;2022-09-03T10:04:21;3.85;;;2.28;;
43990;SDS011;29654;50.784;20.604;2022-09-03T10:09:29;3.63;;;2.50;;
43990;SDS011;29654;50.784;20.604;2022-09-03T10:14:35;2.33;;;2.13;;
43990;SDS011;29654;50.784;20.604;2022-09-03T10:19:45;3.97;;;2.17;;
43990;SDS011;29654;50.784;20.604;2022-09-03T10:25:18;2.47;;;2.28;;
43990;SDS011;29654;50.784;20.604;2022-09-03T10:30:23;3.63;;;2.30;;
43990;SDS011;29654;50.784;20.604;2022-09-03T10:35:27;2.72;;;2.53;;
43990;SDS011;29654;50.784;20.604;2022-09-03T10:40:35;2.92;;;2.67;;
43990;SDS011;29654;50.784;20.604;2022-09-03T10:45:46;4.10;;;2.60;;
43990;SDS011;29654;50.784;20.604;2022-09-03T10:51:02;4.75;;;2.70;;
43990;SDS011;29654;50.784;20.604;2022-09-03T10:56:10;3.97;;;2.90;;
43990;SDS011;29654;50.784;20.604;2022-09-03T11:01:21;2.80;;;2.55;;
43990;SDS011;29654;50.784;20.604;2022-09-03T11:06:34;3.58;;;2.67;;
43990;SDS011;29654;50.784;20.604;2022-09-03T11:11:50;3.15;;;2.30;;
43990;SDS011;29654;50.784;20.604;2022-09-03T11:16:58;2.63;;;2.42;;
43990;SDS011;29654;50.784;20.604;2022-09-03T11:22:10;2.83;;;2.60;;
43990;SDS011;29654;50.784;20.604;2022-09-03T11:27:22;3.95;;;2.85;;
43990;SDS011;29654;50.784;20.604;2022-09-03T11:32:40;2.95;;;2.72;;
43990;SDS011;29654;50.784;20.604;2022-09-03T11:37:56;3.22;;;2.35;;
43990;SDS011;29654;50.784;20.604;2022-09-03T11:43:07;3.65;;;2.50;;
43990;SDS011;29654;50.784;20.604;2022-09-03T11:48:30;4.90;;;2.55;;
43990;SDS011;29654;50.784;20.604;2022-09-03T11:53:40;2.55;;;2.35;;
43990;SDS011;29654;50.784;20.604;2022-09-03T12:04:24;3.28;;;2.45;;
43990;SDS011;29654;50.784;20.604;2022-09-03T12:09:46;3.42;;;2.70;;
43990;SDS011;29654;50.784;20.604;2022-09-03T12:15:32;3.17;;;2.45;;
43990;SDS011;29654;50.784;20.604;2022-09-03T12:21:00;3.08;;;2.33;;
43990;SDS011;29654;50.784;20.604;2022-09-03T12:26:06;3.67;;;2.58;;
43990;SDS011;29654;50.784;20.604;2022-09-03T12:31:16;3.63;;;2.60;;
43990;SDS011;29654;50.784;20.604;2022-09-03T12:36:22;6.28;;;3.03;;
43990;SDS011;29654;50.784;20.604;2022-09-03T12:41:26;3.25;;;2.70;;
43990;SDS011;29654;50.784;20.604;2022-09-03T12:46:32;3.40;;;2.83;;
43990;SDS011;29654;50.784;20.604;2022-09-03T12:51:36;3.63;;;2.70;;
43990;SDS011;29654;50.784;20.604;2022-09-03T12:56:41;2.95;;;2.42;;
43990;SDS011;29654;50.784;20.604;2022-09-03T13:01:48;2.60;;;2.40;;
43990;SDS011;29654;50.784;20.604;2022-09-03T13:06:55;2.80;;;2.60;;
43990;SDS011;29654;50.784;20.604;2022-09-03T13:12:04;3.42;;;2.85;;
43990;SDS011;29654;50.784;20.604;2022-09-03T13:17:15;3.15;;;2.60;;
43990;SDS011;29654;50.784;20.604;2022-09-03T13:22:33;3.28;;;2.97;;
43990;SDS011;29654;50.784;20.604;2022-09-03T13:27:51;4.10;;;3.17;;
43990;SDS011;29654;50.784;20.604;2022-09-03T13:33:07;3.00;;;2.45;;
43990;SDS011;29654;50.784;20.604;2022-09-03T13:38:22;4.07;;;2.90;;
43990;SDS011;29654;50.784;20.604;2022-09-03T13:43:36;4.95;;;2.53;;
43990;SDS011;29654;50.784;20.604;2022-09-03T13:48:45;3.90;;;2.60;;
43990;SDS011;29654;50.784;20.604;2022-09-03T13:54:10;2.53;;;2.17;;
43990;SDS011;29654;50.784;20.604;2022-09-03T13:59:23;2.53;;;2.33;;
43990;SDS011;29654;50.784;20.604;2022-09-03T14:04:41;2.22;;;2.03;;
43990;SDS011;29654;50.784;20.604;2022-09-03T14:09:58;2.13;;;1.92;;
43990;SDS011;29654;50.784;20.604;2022-09-03T14:15:15;2.60;;;1.95;;
43990;SDS011;29654;50.784;20.604;2022-09-03T14:20:27;2.72;;;2.53;;
43990;SDS011;29654;50.784;20.604;2022-09-03T14:25:34;4.25;;;2.58;;
43990;SDS011;29654;50.784;20.604;2022-09-03T14:30:40;2.75;;;2.55;;
43990;SDS011;29654;50.784;20.604;2022-09-03T14:35:54;2.80;;;2.60;;
43990;SDS011;29654;50.784;20.604;2022-09-03T14:41:26;3.20;;;2.40;;
43990;SDS011;29654;50.784;20.604;2022-09-03T14:47:00;2.40;;;2.20;;
43990;SDS011;29654;50.784;20.604;2022-09-03T14:52:29;2.80;;;2.60;;
43990;SDS011;29654;50.784;20.604;2022-09-03T14:58:06;2.42;;;2.28;;
43990;SDS011;29654;50.784;20.604;2022-09-03T15:03:48;2.63;;;2.42;;
43990;SDS011;29654;50.784;20.604;2022-09-03T15:09:29;2.85;;;2.50;;
43990;SDS011;29654;50.784;20.604;2022-09-03T15:14:40;3.25;;;2.88;;
43990;SDS011;29654;50.784;20.604;2022-09-03T15:19:55;3.70;;;2.78;;
43990;SDS011;29654;50.784;20.604;2022-09-03T15:25:14;2.92;;;2.65;;
43990;SDS011;29654;50.784;20.604;2022-09-03T15:30:31;5.80;;;3.55;;
43990;SDS011;29654;50.784;20.604;2022-09-03T15:35:40;3.40;;;3.10;;
43990;SDS011;29654;50.784;20.604;2022-09-03T15:41:07;3.78;;;3.42;;
43990;SDS011;29654;50.784;20.604;2022-09-03T15:46:29;2.85;;;2.58;;
43990;SDS011;29654;50.784;20.604;2022-09-03T15:51:41;3.55;;;2.90;;
43990;SDS011;29654;50.784;20.604;2022-09-03T15:57:00;3.60;;;2.47;;
43990;SDS011;29654;50.784;20.604;2022-09-03T16:02:09;3.30;;;2.75;;
43990;SDS011;29654;50.784;20.604;2022-09-03T16:07:19;2.65;;;2.45;;
43990;SDS011;29654;50.784;20.604;2022-09-03T16:12:30;2.50;;;2.30;;
43990;SDS011;29654;50.784;20.604;2022-09-03T16:17:43;2.42;;;2.00;;
43990;SDS011;29654;50.784;20.604;2022-09-03T16:22:55;2.85;;;2.40;;
43990;SDS011;29654;50.784;20.604;2022-09-03T16:28:06;3.03;;;2.30;;
43990;SDS011;29654;50.784;20.604;2022-09-03T16:33:16;2.00;;;1.90;;
43990;SDS011;29654;50.784;20.604;2022-09-03T16:38:32;2.20;;;2.00;;
43990;SDS011;29654;50.784;20.604;2022-09-03T16:43:49;2.65;;;2.45;;
43990;SDS011;29654;50.784;20.604;2022-09-03T16:49:09;2.83;;;1.90;;
43990;SDS011;29654;50.784;20.604;2022-09-03T16:54:35;2.70;;;2.15;;
43990;SDS011;29654;50.784;20.604;2022-09-03T16:59:59;2.47;;;2.28;;
43990;SDS011;29654;50.784;20.604;2022-09-03T17:05:19;2.15;;;1.95;;
43990;SDS011;29654;50.784;20.604;2022-09-03T17:11:02;3.00;;;2.20;;
43990;SDS011;29654;50.784;20.604;2022-09-03T17:16:23;2.53;;;2.33;;
43990;SDS011;29654;50.784;20.604;2022-09-03T17:21:38;5.70;;;3.17;;
43990;SDS011;29654;50.784;20.604;2022-09-03T17:26:52;3.40;;;2.45;;
43990;SDS011;29654;50.784;20.604;2022-09-03T17:32:11;4.03;;;2.50;;
43990;SDS011;29654;50.784;20.604;2022-09-03T17:37:29;2.72;;;2.17;;
43990;SDS011;29654;50.784;20.604;2022-09-03T17:42:48;3.45;;;2.40;;
43990;SDS011;29654;50.784;20.604;2022-09-03T17:48:04;4.15;;;2.92;;
43990;SDS011;29654;50.784;20.604;2022-09-03T17:53:21;4.50;;;3.33;;
43990;SDS011;29654;50.784;20.604;2022-09-03T17:58:31;5.72;;;4.03;;
43990;SDS011;29654;50.784;20.604;2022-09-03T18:03:40;5.32;;;3.60;;
43990;SDS011;29654;50.784;20.604;2022-09-03T18:08:50;4.10;;;2.80;;
43990;SDS011;29654;50.784;20.604;2022-09-03T18:14:00;3.00;;;2.70;;
43990;SDS011;29654;50.784;20.604;2022-09-03T18:19:21;3.28;;;2.30;;
43990;SDS011;29654;50.784;20.604;2022-09-03T18:24:33;2.60;;;2.40;;
43990;SDS011;29654;50.784;20.604;2022-09-03T18:30:03;1.90;;;1.80;;
43990;SDS011;29654;50.784;20.604;2022-09-03T18:35:28;4.28;;;3.00;;
43990;SDS011;29654;50.784;20.604;2022-09-03T18:40:51;4.22;;;3.85;;
43990;SDS011;29654;50.784;20.604;2022-09-03T18:46:18;3.28;;;2.97;;
43990;SDS011;29654;50.784;20.604;2022-09-03T18:51:50;3.97;;;3.28;;
43990;SDS011;29654;50.784;20.604;2022-09-03T18:57:19;4.00;;;3.10;;
43990;SDS011;29654;50.784;20.604;2022-09-03T19:02:46;3.92;;;3.03;;
43990;SDS011;29654;50.784;20.604;2022-09-03T19:08:43;3.72;;;3.40;;
43990;SDS011;29654;50.784;20.604;2022-09-03T19:14:16;4.60;;;3.42;;
43990;SDS011;29654;50.784;20.604;2022-09-03T19:19:53;3.95;;;3.65;;
43990;SDS011;29654;50.784;20.604;2022-09-03T19:25:24;4.75;;;4.35;;
43990;SDS011;29654;50.784;20.604;2022-09-03T19:30:48;6.53;;;5.43;;
43990;SDS011;29654;50.784;20.604;2022-09-03T19:36:22;11.25;;;8.10;;
43990;SDS011;29654;50.784;20.604;2022-09-03T19:41:52;9.93;;;7.60;;
43990;SDS011;29654;50.784;20.604;2022-09-03T19:47:25;11.57;;;8.88;;
43990;SDS011;29654;50.784;20.604;2022-09-03T19:53:01;9.48;;;6.93;;
43990;SDS011;29654;50.784;20.604;2022-09-03T19:58:26;8.75;;;6.40;;
43990;SDS011;29654;50.784;20.604;2022-09-03T20:03:50;7.57;;;5.50;;
43990;SDS011;29654;50.784;20.604;2022-09-03T20:09:12;8.13;;;6.00;;
43990;SDS011;29654;50.784;20.604;2022-09-03T20:14:37;6.90;;;5.93;;
43990;SDS011;29654;50.784;20.604;2022-09-03T20:19:45;8.23;;;5.97;;
43990;SDS011;29654;50.784;20.604;2022-09-03T20:25:06;7.72;;;5.78;;
43990;SDS011;29654;50.784;20.604;2022-09-03T20:30:39;9.32;;;6.95;;
43990;SDS011;29654;50.784;20.604;2022-09-03T20:35:52;10.52;;;7.55;;
43990;SDS011;29654;50.784;20.604;2022-09-03T20:41:09;8.15;;;6.80;;
43990;SDS011;29654;50.784;20.604;2022-09-03T20:46:38;7.43;;;6.38;;
43990;SDS011;29654;50.784;20.604;2022-09-03T20:51:55;8.05;;;6.28;;
43990;SDS011;29654;50.784;20.604;2022-09-03T20:57:14;9.43;;;7.47;;
43990;SDS011;29654;50.784;20.604;2022-09-03T21:02:36;9.13;;;6.85;;
43990;SDS011;29654;50.784;20.604;2022-09-03T21:08:03;8.27;;;5.93;;
43990;SDS011;29654;50.784;20.604;2022-09-03T21:13:17;6.43;;;5.30;;
43990;SDS011;29654;50.784;20.604;2022-09-03T21:18:36;5.70;;;4.95;;
43990;SDS011;29654;50.784;20.604;2022-09-03T21:23:47;3.65;;;3.22;;
43990;SDS011;29654;50.784;20.604;2022-09-03T21:28:59;3.83;;;3.22;;
43990;SDS011;29654;50.784;20.604;2022-09-03T21:34:10;3.58;;;3.28;;
43990;SDS011;29654;50.784;20.604;2022-09-03T21:39:20;4.13;;;3.47;;
43990;SDS011;29654;50.784;20.604;2022-09-03T21:44:44;4.00;;;3.50;;
43990;SDS011;29654;50.784;20.604;2022-09-03T21:49:57;4.70;;;3.78;;
43990;SDS011;29654;50.784;20.604;2022-09-03T21:55:14;3.40;;;2.92;;
43990;SDS011;29654;50.784;20.604;2022-09-03T22:00:25;3.58;;;3.28;;
43990;SDS011;29654;50.784;20.604;2022-09-03T22:05:35;4.20;;;3.35;;
43990;SDS011;29654;50.784;20.604;2022-09-03T22:10:55;4.43;;;3.25;;
43990;SDS011;29654;50.784;20.604;2022-09-03T22:16:08;3.55;;;3.25;;
43990;SDS011;29654;50.784;20.604;2022-09-03T22:21:20;2.92;;;2.63;;
43990;SDS011;29654;50.784;20.604;2022-09-03T22:26:31;3.40;;;3.05;;
43990;SDS011;29654;50.784;20.604;2022-09-03T22:31:47;4.15;;;2.97;;
43990;SDS011;29654;50.784;20.604;2022-09-03T22:37:01;3.28;;;2.95;;
43990;SDS011;29654;50.784;20.604;2022-09-03T22:42:18;3.42;;;2.30;;
43990;SDS011;29654;50.784;20.604;2022-09-03T22:47:38;3.88;;;3.15;;
43990;SDS011;29654;50.784;20.604;2022-09-03T22:53:06;3.13;;;2.83;;
43990;SDS011;29654;50.784;20.604;2022-09-03T22:58:21;3.85;;;2.88;;
43990;SDS011;29654;50.784;20.604;2022-09-03T23:03:29;3.10;;;2.80;;
43990;SDS011;29654;50.784;20.604;2022-09-03T23:08:44;3.88;;;2.92;;
43990;SDS011;29654;50.784;20.604;2022-09-03T23:13:54;3.60;;;2.85;;
43990;SDS011;29654;50.784;20.604;2022-09-03T23:19:02;3.40;;;3.10;;
43990;SDS011;29654;50.784;20.604;2022-09-03T23:24:17;3.58;;;3.28;;
43990;SDS011;29654;50.784;20.604;2022-09-03T23:29:36;3.10;;;2.90;;
43990;SDS011;29654;50.784;20.604;2022-09-03T23:34:42;3.53;;;2.83;;
43990;SDS011;29654;50.784;20.604;2022-09-03T23:39:51;3.33;;;2.78;;
43990;SDS011;29654;50.784;20.604;2022-09-03T23:45:19;3.00;;;2.80;;
43990;SDS011;29654;50.784;20.604;2022-09-03T23:50:33;3.42;;;3.13;;
43990;SDS011;29654;50.784;20.604;2022-09-03T23:55:48;3.10;;;2.80;;
